createdAt,value
2023-09-23T00:02:19.626Z,99769.31
2023-09-23T00:05:22.453Z,99767.22
2023-09-23T00:08:24.918Z,99781.50
2023-09-23T00:11:27.352Z,99780.19
2023-09-23T00:14:32.490Z,99779.09
2023-09-23T00:17:37.256Z,99786.72
2023-09-23T00:20:41.041Z,99789.06
2023-09-23T00:23:43.419Z,99770.78
2023-09-23T00:26:49.812Z,99767.84
2023-09-23T00:29:53.186Z,99777.44
2023-09-23T00:32:55.804Z,99784.97
2023-09-23T00:35:58.198Z,99801.25
2023-09-23T00:39:04.100Z,99808.50
2023-09-23T00:42:06.667Z,99824.25
2023-09-23T00:45:16.143Z,99840.06
2023-09-23T00:48:24.989Z,99849.16
2023-09-23T00:51:28.052Z,99859.38
2023-09-23T00:54:32.364Z,99859.66
2023-09-23T00:57:35.237Z,99889.28
2023-09-23T01:00:45.067Z,99888.34
2023-09-23T01:03:47.549Z,99846.09
2023-09-23T01:06:50.021Z,99796.13
2023-09-23T01:09:52.536Z,99795.16
2023-09-23T01:12:55.628Z,99820.91
2023-09-23T01:15:58.127Z,99804.41
2023-09-23T01:19:01.575Z,99819.03
2023-09-23T01:22:04.292Z,99845.72
2023-09-23T01:25:07.286Z,99843.94
2023-09-23T01:28:12.604Z,99862.44
2023-09-23T01:31:15.188Z,99868.75
2023-09-23T01:34:17.883Z,99873.00
2023-09-23T01:37:21.161Z,99869.56
2023-09-23T01:40:25.417Z,99880.66
2023-09-23T01:43:28.226Z,99869.84
2023-09-23T01:46:31.526Z,99876.97
2023-09-23T01:49:34.269Z,99871.97
2023-09-23T01:52:37.801Z,99865.13
2023-09-23T01:55:40.218Z,99870.91
2023-09-23T01:58:43.243Z,99887.78
2023-09-23T02:01:46.205Z,99963.19
2023-09-23T02:04:48.754Z,100038.84
2023-09-23T02:07:51.881Z,100032.50
2023-09-23T02:10:54.395Z,100045.63
2023-09-23T02:13:57.119Z,100069.22
2023-09-23T02:16:59.730Z,100066.50
2023-09-23T02:20:02.203Z,100064.94
2023-09-23T02:23:07.231Z,100073.91
2023-09-23T02:26:09.746Z,100074.13
2023-09-23T02:29:13.696Z,100087.03
2023-09-23T02:32:16.256Z,100055.38
2023-09-23T02:35:18.990Z,100045.91
2023-09-23T02:38:22.898Z,100031.13
2023-09-23T02:41:25.734Z,100011.91
2023-09-23T02:44:31.284Z,99987.38
2023-09-23T02:47:33.979Z,99952.56
2023-09-23T02:50:38.394Z,99948.84
2023-09-23T02:53:40.889Z,99933.81
2023-09-23T02:56:43.447Z,99914.88
2023-09-23T02:59:48.151Z,99878.72
2023-09-23T03:02:56.545Z,99875.13
2023-09-23T03:06:04.085Z,99878.75
2023-09-23T03:09:09.841Z,99857.47
2023-09-23T03:12:13.353Z,99831.38
2023-09-23T03:15:16.239Z,99829.56
2023-09-23T03:18:29.463Z,99818.22
2023-09-23T03:21:32.701Z,99805.13
2023-09-23T03:24:36.306Z,99781.72
2023-09-23T03:27:40.990Z,99789.34
2023-09-23T03:30:49.638Z,99777.53
2023-09-23T03:33:57.169Z,99765.41
2023-09-23T03:37:10.132Z,99764.09
2023-09-23T03:40:16.790Z,99789.59
2023-09-23T03:43:19.889Z,99795.91
2023-09-23T03:46:23.034Z,99789.31
2023-09-23T03:49:25.444Z,99773.78
2023-09-23T03:52:28.025Z,99771.41
2023-09-23T03:55:30.930Z,99783.25
2023-09-23T03:58:33.407Z,99781.91
2023-09-23T04:01:37.845Z,99789.25
2023-09-23T04:04:40.411Z,99806.09
2023-09-23T04:07:52.475Z,99823.94
2023-09-23T04:10:54.992Z,99825.50
2023-09-23T04:13:57.435Z,99829.19
2023-09-23T04:16:59.966Z,99844.16
2023-09-23T04:20:05.257Z,99877.03
2023-09-23T04:23:07.696Z,99922.06
2023-09-23T04:26:10.177Z,99960.19
2023-09-23T04:29:13.510Z,99966.44
2023-09-23T04:32:16.006Z,99925.91
2023-09-23T04:40:30.657Z,99958.22
2023-09-23T04:43:33.106Z,99955.03
2023-09-23T04:46:35.571Z,99942.69
2023-09-23T04:49:38.369Z,99941.88
2023-09-23T04:52:42.300Z,99943.44
2023-09-23T04:55:47.139Z,99992.06
2023-09-23T04:58:49.938Z,100036.78
2023-09-23T05:01:52.618Z,100065.34
2023-09-23T05:04:55.304Z,100031.38
2023-09-23T05:07:57.979Z,100017.59
2023-09-23T05:11:01.886Z,99949.50
2023-09-23T05:14:06.991Z,99995.25
2023-09-23T05:17:11.454Z,99987.59
2023-09-23T05:20:17.872Z,100185.06
2023-09-23T05:23:24.328Z,100280.59
2023-09-23T05:26:27.272Z,100224.72
2023-09-23T05:29:29.835Z,100220.75
2023-09-23T05:32:32.362Z,100171.28
2023-09-23T05:35:36.524Z,100124.91
2023-09-23T05:38:38.979Z,100110.47
2023-09-23T05:41:41.451Z,100100.75
2023-09-23T05:44:44.440Z,100100.03
2023-09-23T05:47:47.075Z,100085.06
2023-09-23T05:50:50.554Z,100119.44
2023-09-23T05:53:53.102Z,100206.09
2023-09-23T05:56:55.582Z,100253.03
2023-09-23T05:59:58.061Z,100254.13
2023-09-23T06:03:00.621Z,100192.94
2023-09-23T06:06:03.124Z,100192.56
2023-09-23T06:09:07.297Z,100203.88
2023-09-23T06:12:09.709Z,100199.81
2023-09-23T06:15:12.246Z,100217.03
2023-09-23T06:18:15.078Z,100230.94
2023-09-23T06:21:17.547Z,100235.66
2023-09-23T06:24:20.033Z,100213.28
2023-09-23T06:27:22.926Z,100184.59
2023-09-23T06:30:25.539Z,100181.44
2023-09-23T06:33:27.971Z,100191.16
2023-09-23T06:36:30.624Z,100213.22
2023-09-23T06:39:33.397Z,100215.03
2023-09-23T06:42:37.248Z,100213.78
2023-09-23T06:45:40.390Z,100201.34
2023-09-23T06:48:43.472Z,100224.53
2023-09-23T06:51:45.950Z,100229.50
2023-09-23T06:54:48.439Z,100231.88
2023-09-23T06:57:51.008Z,100193.81
2023-09-23T07:00:53.486Z,100174.44
2023-09-23T07:03:56.056Z,100187.06
2023-09-23T07:06:58.646Z,100182.53
2023-09-23T07:10:01.229Z,100120.53
2023-09-23T07:13:07.635Z,100127.44
2023-09-23T07:16:17.677Z,100139.28
2023-09-23T07:19:20.381Z,100159.00
2023-09-23T07:22:22.819Z,100160.84
2023-09-23T07:25:25.440Z,100158.75
2023-09-23T07:28:28.130Z,100160.03
2023-09-23T07:31:30.572Z,100168.72
2023-09-23T07:34:33.070Z,100149.78
2023-09-23T07:37:35.717Z,100148.44
2023-09-23T07:40:40.455Z,100160.72
2023-09-23T07:43:43.983Z,100165.47
2023-09-23T07:46:46.463Z,100179.13
2023-09-23T07:49:49.051Z,100181.00
2023-09-23T07:52:51.598Z,100193.78
2023-09-23T07:55:54.090Z,100191.28
2023-09-23T07:58:56.583Z,100166.94
2023-09-23T08:01:59.105Z,100169.94
2023-09-23T08:05:01.693Z,100192.63
2023-09-23T08:08:04.727Z,100184.97
2023-09-23T08:11:09.175Z,100171.91
2023-09-23T08:14:11.852Z,100148.25
2023-09-23T08:17:16.279Z,100119.81
2023-09-23T08:20:19.680Z,100085.34
2023-09-23T08:23:22.217Z,100072.78
2023-09-23T08:26:25.922Z,100099.63
2023-09-23T08:29:31.052Z,100104.19
2023-09-23T08:32:33.662Z,100139.22
2023-09-23T08:35:37.505Z,100129.53
2023-09-23T08:38:41.153Z,100140.34
2023-09-23T08:41:49.320Z,100134.59
2023-09-23T08:44:51.994Z,100124.13
2023-09-23T08:47:54.877Z,100134.34
2023-09-23T08:50:57.406Z,100136.25
2023-09-23T08:53:59.818Z,100134.91
2023-09-23T08:57:02.292Z,100133.91
2023-09-23T09:00:11.736Z,100126.28
2023-09-23T09:03:14.645Z,100151.88
2023-09-23T09:06:20.451Z,100158.72
2023-09-23T09:09:24.942Z,100187.19
2023-09-23T09:12:27.863Z,100203.38
2023-09-23T09:15:31.898Z,100228.50
2023-09-23T09:18:34.450Z,100233.13
2023-09-23T09:21:37.135Z,100231.94
2023-09-23T09:24:39.615Z,100202.88
2023-09-23T09:27:43.022Z,100213.28
2023-09-23T09:30:45.697Z,100195.38
2023-09-23T09:33:51.584Z,100184.78
2023-09-23T09:36:58.410Z,100192.44
2023-09-23T09:40:01.124Z,100190.59
2023-09-23T09:43:03.697Z,100194.03
2023-09-23T09:46:09.967Z,100195.09
2023-09-23T09:49:12.757Z,100205.19
2023-09-23T09:52:16.052Z,100196.00
2023-09-23T09:55:20.671Z,100193.31
2023-09-23T09:58:23.467Z,100187.81
2023-09-23T10:01:26.212Z,100174.88
2023-09-23T10:04:35.122Z,100161.50
2023-09-23T10:07:58.883Z,100150.97
2023-09-23T10:11:05.333Z,100159.09
2023-09-23T10:14:17.909Z,100168.09
2023-09-23T10:17:22.322Z,100181.56
2023-09-23T10:20:33.968Z,100197.56
2023-09-23T10:23:37.123Z,100219.50
2023-09-23T10:26:40.934Z,100212.44
2023-09-23T10:29:48.542Z,100211.06
2023-09-23T10:32:51.122Z,100237.16
2023-09-23T10:35:54.836Z,100240.56
2023-09-23T10:38:58.719Z,100253.53
2023-09-23T10:42:01.296Z,100264.22
2023-09-23T10:45:04.572Z,100262.03
2023-09-23T10:48:09.376Z,100250.53
2023-09-23T10:51:13.750Z,100252.81
2023-09-23T10:54:16.639Z,100245.75
2023-09-23T10:57:19.116Z,100259.16
2023-09-23T11:00:22.009Z,100249.88
2023-09-23T11:03:24.833Z,100237.75
2023-09-23T11:06:27.706Z,100236.91
2023-09-23T11:09:30.700Z,100235.75
2023-09-23T11:12:34.635Z,100246.50
2023-09-23T11:15:41.082Z,100238.06
2023-09-23T11:18:44.325Z,100224.88
2023-09-23T11:21:47.414Z,100233.31
2023-09-23T11:24:50.666Z,100232.81
2023-09-23T11:27:53.433Z,100233.84
2023-09-23T11:30:56.754Z,100225.97
2023-09-23T11:33:59.624Z,100232.25
2023-09-23T11:37:02.039Z,100241.31
2023-09-23T11:40:05.126Z,100237.66
2023-09-23T11:43:07.681Z,100259.97
2023-09-23T11:46:10.178Z,100272.16
2023-09-23T11:49:12.637Z,100274.72
2023-09-23T11:52:15.117Z,100277.13
2023-09-23T11:55:17.906Z,100289.78
2023-09-23T11:58:21.140Z,100284.94
2023-09-23T12:01:23.563Z,100281.94
2023-09-23T12:04:26.093Z,100278.50
2023-09-23T12:07:28.530Z,100252.75
2023-09-23T12:10:31.596Z,100253.91
2023-09-23T12:13:34.277Z,100238.88
2023-09-23T12:16:36.929Z,100224.56
2023-09-23T12:19:39.362Z,100228.97
2023-09-23T12:22:42.564Z,100214.25
2023-09-23T12:25:44.995Z,100210.25
2023-09-23T12:28:47.771Z,100222.88
2023-09-23T12:31:50.257Z,100245.44
2023-09-23T12:34:52.674Z,100223.59
2023-09-23T12:37:55.634Z,100141.53
2023-09-23T12:40:58.508Z,100132.44
2023-09-23T12:44:01.169Z,100153.22
2023-09-23T12:47:04.306Z,100164.28
2023-09-23T12:50:08.433Z,100183.97
2023-09-23T12:53:11.081Z,100241.09
2023-09-23T12:56:14.915Z,100257.66
2023-09-23T12:59:18.268Z,100264.25
2023-09-23T13:02:20.788Z,100279.25
2023-09-23T13:05:23.444Z,100271.38
2023-09-23T13:08:25.969Z,100262.06
2023-09-23T13:11:28.809Z,100265.50
2023-09-23T13:14:31.378Z,100266.09
2023-09-23T13:17:33.986Z,100260.78
2023-09-23T13:20:37.375Z,100266.00
2023-09-23T13:23:40.300Z,100282.00
2023-09-23T13:26:44.833Z,100291.97
2023-09-23T13:29:47.318Z,100301.63
2023-09-23T13:32:49.755Z,100281.00
2023-09-23T13:35:52.893Z,100283.22
2023-09-23T13:38:55.361Z,100289.53
2023-09-23T13:41:58.043Z,100279.50
2023-09-23T13:45:00.753Z,100272.66
2023-09-23T13:48:03.825Z,100252.84
2023-09-23T13:51:08.229Z,100243.06
2023-09-23T13:54:10.927Z,100223.97
2023-09-23T13:57:13.301Z,100238.78
2023-09-23T14:00:15.799Z,100218.22
2023-09-23T14:03:19.636Z,100236.41
2023-09-23T14:06:22.272Z,100265.88
2023-09-23T14:09:24.953Z,100289.19
2023-09-23T14:12:27.963Z,100294.22
2023-09-23T14:15:31.756Z,100285.53
2023-09-23T14:18:34.775Z,100279.97
2023-09-23T14:21:37.220Z,100282.06
2023-09-23T14:24:39.598Z,100267.84
2023-09-23T14:27:42.383Z,100251.22
2023-09-23T14:30:45.079Z,100234.91
2023-09-23T14:33:47.539Z,100245.44
2023-09-23T14:36:50.119Z,100234.91
2023-09-23T14:39:52.545Z,100238.25
2023-09-23T14:42:56.428Z,100258.25
2023-09-23T14:45:59.504Z,100256.09
2023-09-23T14:49:02.090Z,100250.53
2023-09-23T14:52:04.657Z,100238.44
2023-09-23T14:55:08.061Z,100245.28
2023-09-23T14:58:11.456Z,100236.81
2023-09-23T15:01:14.223Z,100261.59
2023-09-23T15:04:18.014Z,100258.56
2023-09-23T15:07:21.961Z,100275.91
2023-09-23T15:10:24.461Z,100292.25
2023-09-23T15:13:26.818Z,100287.13
2023-09-23T15:16:30.678Z,100303.41
2023-09-23T15:19:33.176Z,100292.88
2023-09-23T15:22:35.649Z,100304.97
2023-09-23T15:25:39.389Z,100293.91
2023-09-23T15:28:41.946Z,100303.88
2023-09-23T15:31:44.653Z,100309.59
2023-09-23T15:34:47.093Z,100309.59
2023-09-23T15:37:49.499Z,100311.44
2023-09-23T15:40:52.985Z,100322.19
2023-09-23T15:43:55.585Z,100329.56
2023-09-23T15:46:58.969Z,100321.44
2023-09-23T15:50:01.411Z,100326.13
2023-09-23T15:53:05.828Z,100330.78
2023-09-23T15:56:08.529Z,100337.38
2023-09-23T15:59:11.824Z,100342.84
2023-09-23T16:02:14.485Z,100322.66
2023-09-23T16:05:17.099Z,100314.22
2023-09-23T16:08:19.602Z,100310.56
2023-09-23T16:11:22.117Z,100306.09
2023-09-23T16:14:26.488Z,100303.47
2023-09-23T16:17:29.152Z,100300.06
2023-09-23T16:20:31.733Z,100308.50
2023-09-23T16:23:34.524Z,100313.97
2023-09-23T16:26:37.055Z,100313.91
2023-09-23T16:29:41.595Z,100329.41
2023-09-23T16:32:44.155Z,100335.94
2023-09-23T16:35:46.678Z,100308.31
2023-09-23T16:38:49.672Z,100327.66
2023-09-23T16:41:52.506Z,100313.19
2023-09-23T16:44:54.971Z,100271.72
2023-09-23T16:47:57.855Z,100235.13
2023-09-23T16:51:00.342Z,100249.91
2023-09-23T16:54:03.008Z,100254.06
2023-09-23T16:57:05.595Z,100249.34
2023-09-23T17:00:09.424Z,100237.03
2023-09-23T17:03:12.408Z,100231.84
2023-09-23T17:06:15.073Z,100226.38
2023-09-23T17:09:17.553Z,100216.03
2023-09-23T17:12:19.972Z,100189.47
2023-09-23T17:15:22.765Z,100189.63
2023-09-23T17:18:25.972Z,100197.25
2023-09-23T17:21:28.396Z,100221.03
2023-09-23T17:24:31.060Z,100257.78
2023-09-23T17:27:34.055Z,100256.38
2023-09-23T17:30:37.859Z,100265.03
2023-09-23T17:33:40.727Z,100265.91
2023-09-23T17:36:43.225Z,100292.16
2023-09-23T17:39:45.629Z,100305.09
2023-09-23T17:42:48.410Z,100322.69
2023-09-23T17:45:50.815Z,100325.03
2023-09-23T17:48:54.364Z,100338.00
2023-09-23T17:51:57.047Z,100336.41
2023-09-23T17:55:00.357Z,100339.25
2023-09-23T17:58:03.231Z,100327.41
2023-09-23T18:01:06.015Z,100307.78
2023-09-23T18:04:08.619Z,100285.59
2023-09-23T18:07:11.110Z,100289.59
2023-09-23T18:10:13.554Z,100284.72
2023-09-23T18:13:16.949Z,100292.97
2023-09-23T18:16:20.586Z,100300.53
2023-09-23T18:19:23.264Z,100311.59
2023-09-23T18:22:25.821Z,100299.34
2023-09-23T18:25:28.249Z,100286.19
2023-09-23T18:28:30.897Z,100299.38
2023-09-23T18:31:33.961Z,100307.06
2023-09-23T18:34:36.455Z,100318.22
2023-09-23T18:37:38.918Z,100317.41
2023-09-23T18:40:41.321Z,100316.03
2023-09-23T18:43:44.674Z,100330.44
2023-09-23T18:46:48.047Z,100328.72
2023-09-23T18:49:51.553Z,100338.22
2023-09-23T18:52:53.973Z,100343.81
2023-09-23T18:56:00.755Z,100360.00
2023-09-23T18:59:03.561Z,100359.63
2023-09-23T19:02:06.719Z,100366.94
2023-09-23T19:05:09.929Z,100357.25
2023-09-23T19:08:12.461Z,100360.91
2023-09-23T19:11:15.066Z,100365.34
2023-09-23T19:14:17.902Z,100363.66
2023-09-23T19:17:23.128Z,100364.00
2023-09-23T19:20:26.166Z,100374.41
2023-09-23T19:23:28.880Z,100382.03
2023-09-23T19:26:40.717Z,100390.81
2023-09-23T19:29:52.704Z,100397.88
2023-09-23T19:32:55.299Z,100397.78
2023-09-23T19:35:57.789Z,100395.50
2023-09-23T19:39:00.657Z,100415.44
2023-09-23T19:42:04.062Z,100423.19
2023-09-23T19:45:06.956Z,100422.72
2023-09-23T19:48:10.874Z,100424.44
2023-09-23T19:51:15.585Z,100434.34
2023-09-23T19:54:18.062Z,100442.22
2023-09-23T19:57:21.833Z,100442.91
2023-09-23T20:00:24.685Z,100435.03
2023-09-23T20:03:27.310Z,100429.59
2023-09-23T20:06:30.508Z,100417.38
2023-09-23T20:09:33.418Z,100414.06
2023-09-23T20:12:36.616Z,100415.09
2023-09-23T20:15:39.195Z,100404.06
2023-09-23T20:18:41.652Z,100407.78
2023-09-23T20:21:44.145Z,100398.34
2023-09-23T20:24:46.518Z,100385.81
2023-09-23T20:27:49.009Z,100377.03
2023-09-23T20:30:57.397Z,100378.16
2023-09-23T20:34:00.636Z,100351.94
2023-09-23T20:37:04.099Z,100352.16
2023-09-23T20:40:08.214Z,100346.13
2023-09-23T20:43:11.133Z,100343.06
2023-09-23T20:46:13.649Z,100346.25
2023-09-23T20:49:16.293Z,100356.50
2023-09-23T20:52:19.452Z,100344.19
2023-09-23T20:55:21.858Z,100345.69
2023-09-23T20:58:25.374Z,100326.31
2023-09-23T21:01:27.968Z,100330.63
2023-09-23T21:04:30.522Z,100320.25
2023-09-23T21:07:33.097Z,100339.63
2023-09-23T21:10:36.200Z,100342.91
2023-09-23T21:13:38.688Z,100350.31
2023-09-23T21:16:41.148Z,100365.91
2023-09-23T21:19:44.556Z,100378.56
2023-09-23T21:22:47.017Z,100358.38
2023-09-23T21:25:54.749Z,100344.34
2023-09-23T21:28:57.134Z,100352.72
2023-09-23T21:31:59.593Z,100365.47
2023-09-23T21:35:04.212Z,100376.25
2023-09-23T21:38:07.805Z,100386.84
2023-09-23T21:41:10.284Z,100370.69
2023-09-23T21:44:12.969Z,100394.25
2023-09-23T21:47:17.978Z,100385.91
2023-09-23T21:50:20.500Z,100405.25
2023-09-23T21:53:23.001Z,100402.53
2023-09-23T21:56:37.432Z,100396.38
2023-09-23T21:59:40.331Z,100364.50
2023-09-23T22:02:42.927Z,100391.16
2023-09-23T22:05:45.429Z,100393.94
2023-09-23T22:08:49.974Z,100407.84
2023-09-23T22:11:52.494Z,100397.13
2023-09-23T22:14:55.180Z,100398.75
2023-09-23T22:17:58.748Z,100389.41
2023-09-23T22:21:01.461Z,100390.16
2023-09-23T22:24:08.776Z,100397.50
2023-09-23T22:27:11.311Z,100386.53
2023-09-23T22:30:18.885Z,100374.28
2023-09-23T22:33:21.344Z,100373.56
2023-09-23T22:36:24.172Z,100368.81
2023-09-23T22:39:27.233Z,100367.72
2023-09-23T22:42:29.612Z,100363.06
2023-09-23T22:45:39.458Z,100364.31
2023-09-23T22:48:42.529Z,100368.00
2023-09-23T22:51:45.059Z,100361.38
2023-09-23T22:54:47.437Z,100360.59
2023-09-23T22:57:49.910Z,100359.81
2023-09-23T23:00:52.471Z,100350.88
2023-09-23T23:03:55.484Z,100341.19
2023-09-23T23:06:57.938Z,100350.63
2023-09-23T23:10:00.448Z,100342.00
2023-09-23T23:13:03.200Z,100339.47
2023-09-23T23:16:10.681Z,100335.81
2023-09-23T23:19:14.167Z,100328.69
2023-09-23T23:22:16.597Z,100323.00
2023-09-23T23:25:19.175Z,100314.81
2023-09-23T23:28:22.640Z,100310.69
2023-09-23T23:31:25.120Z,100327.38
2023-09-23T23:34:27.637Z,100325.81
2023-09-23T23:37:30.217Z,100333.88
2023-09-23T23:40:34.128Z,100352.47
2023-09-23T23:43:36.602Z,100374.97
2023-09-23T23:46:38.976Z,100380.72
2023-09-23T23:49:41.362Z,100392.78
2023-09-23T23:52:43.746Z,100398.00
2023-09-23T23:55:47.842Z,100403.63
2023-09-23T23:58:51.753Z,100412.81
